Time;durP1;ratioP1;P1;durP2;ratioP2;P2;SDS_P1;SDS_P2;PMS_P1;PMS_P2;Temp;Humidity;BMP_temperature;BMP_pressure;BME280_temperature;BME280_humidity;BME280_pressure;Samples;Min_cycle;Max_cycle;Signal;HPM_P1;HPM_P2
2024/04/10 00:00:51;;;;;;;2.13;0.30;;;;;;;;;;5456529;26;20265;-80
2024/04/10 00:03:22;;;;;;;1.10;0.30;;;;;;;;;;5456311;26;20263;-79
2024/04/10 00:06:00;;;;;;;2.40;0.37;;;;;;;;;;5456180;26;20288;-79
2024/04/10 00:08:28;;;;;;;0.77;0.33;;;;;;;;;;5456484;26;20221;-79
2024/04/10 00:10:55;;;;;;;1.27;0.20;;;;;;;;;;5455260;26;20224;-79
2024/04/10 00:13:23;;;;;;;2.37;0.30;;;;;;;;;;5455071;26;20220;-78
2024/04/10 00:15:57;;;;;;;3.40;0.47;;;;;;;;;;5454543;26;20228;-78
2024/04/10 00:18:25;;;;;;;1.53;0.30;;;;;;;;;;5454985;26;20236;-78
2024/04/10 00:20:53;;;;;;;1.70;0.43;;;;;;;;;;5454938;26;20272;-78
2024/04/10 00:23:21;;;;;;;1.50;0.30;;;;;;;;;;5454858;26;20223;-78
2024/04/10 00:25:59;;;;;;;1.57;0.30;;;;;;;;;;5454987;26;20228;-79
2024/04/10 00:28:31;;;;;;;1.93;0.30;;;;;;;;;;5455116;26;20701;-79
2024/04/10 00:31:08;;;;;;;1.60;0.40;;;;;;;;;;5454973;26;20176;-79
2024/04/10 00:33:38;;;;;;;2.87;0.30;;;;;;;;;;5454862;26;20213;-78
2024/04/10 00:36:08;;;;;;;0.90;0.60;;;;;;;;;;5454803;26;20220;-79
2024/04/10 00:38:37;;;;;;;0.63;0.37;;;;;;;;;;5454565;26;20224;-79
2024/04/10 00:41:05;;;;;;;1.93;0.30;;;;;;;;;;5454830;26;20230;-79
2024/04/10 00:43:33;;;;;;;1.33;0.30;;;;;;;;;;5454357;26;20219;-79
2024/04/10 00:46:14;;;;;;;0.40;0.20;;;;;;;;;;5454492;26;20323;-78
2024/04/10 00:48:42;;;;;;;1.80;0.30;;;;;;;;;;5454229;26;20210;-78
2024/04/10 00:51:11;;;;;;;3.30;0.63;;;;;;;;;;5454609;26;20534;-79
2024/04/10 00:53:39;;;;;;;0.23;0.20;;;;;;;;;;5454730;26;20226;-79
2024/04/10 00:56:08;;;;;;;1.50;0.37;;;;;;;;;;5454690;26;20706;-79
2024/04/10 00:58:37;;;;;;;1.07;0.40;;;;;;;;;;5454203;26;20221;-78
2024/04/10 01:01:06;;;;;;;1.47;0.23;;;;;;;;;;5454279;26;20328;-79
2024/04/10 01:03:35;;;;;;;2.53;0.33;;;;;;;;;;5454304;26;20227;-79
2024/04/10 01:06:06;;;;;;;0.30;0.30;;;;;;;;;;5453222;26;20330;-79
2024/04/10 01:08:34;;;;;;;0.33;0.23;;;;;;;;;;5454522;26;20188;-79
2024/04/10 01:11:03;;;;;;;3.03;0.30;;;;;;;;;;5454452;26;20760;-79
2024/04/10 01:13:31;;;;;;;0.30;0.30;;;;;;;;;;5453915;26;20235;-79
2024/04/10 01:16:02;;;;;;;2.00;0.40;;;;;;;;;;5393850;26;20726;-78
2024/04/10 01:18:30;;;;;;;0.53;0.30;;;;;;;;;;5399730;26;20283;-79
2024/04/10 01:20:58;;;;;;;1.50;0.40;;;;;;;;;;5383005;26;20227;-79
2024/04/10 01:23:25;;;;;;;1.80;0.43;;;;;;;;;;5382726;26;20552;-79
2024/04/10 01:25:53;;;;;;;2.30;0.47;;;;;;;;;;5382811;26;20669;-79
2024/04/10 01:28:21;;;;;;;1.37;0.40;;;;;;;;;;5382475;26;20264;-79
2024/04/10 01:30:49;;;;;;;0.83;0.40;;;;;;;;;;5382501;26;20270;-79
2024/04/10 01:33:16;;;;;;;1.53;0.40;;;;;;;;;;5383055;26;20236;-79
2024/04/10 01:35:44;;;;;;;3.40;0.50;;;;;;;;;;5382351;26;20224;-79
2024/04/10 01:38:11;;;;;;;2.67;0.60;;;;;;;;;;5382549;26;20283;-79
2024/04/10 01:40:40;;;;;;;0.50;0.40;;;;;;;;;;5382891;26;20749;-79
2024/04/10 01:43:07;;;;;;;0.30;0.30;;;;;;;;;;5382852;26;20262;-79
2024/04/10 01:45:38;;;;;;;0.47;0.33;;;;;;;;;;5382599;26;20263;-79
2024/04/10 01:48:08;;;;;;;1.93;0.33;;;;;;;;;;5382985;26;20228;-79
2024/04/10 01:50:36;;;;;;;0.97;0.30;;;;;;;;;;5382955;26;20326;-79
2024/04/10 01:53:05;;;;;;;0.40;0.40;;;;;;;;;;5382599;26;20757;-79
2024/04/10 01:55:32;;;;;;;0.50;0.40;;;;;;;;;;5380800;26;20292;-79
2024/04/10 01:58:00;;;;;;;0.33;0.20;;;;;;;;;;5380539;26;20232;-79
2024/04/10 02:00:27;;;;;;;0.30;0.30;;;;;;;;;;5382336;26;20271;-79
2024/04/10 02:02:56;;;;;;;1.27;0.30;;;;;;;;;;5382337;26;20276;-80
2024/04/10 02:05:24;;;;;;;0.30;0.30;;;;;;;;;;5381960;26;20719;-79
2024/04/10 02:07:52;;;;;;;0.73;0.30;;;;;;;;;;5382098;26;20277;-79
2024/04/10 02:10:21;;;;;;;2.77;0.40;;;;;;;;;;5382022;26;20224;-79
2024/04/10 02:12:49;;;;;;;1.40;0.40;;;;;;;;;;5382434;26;20232;-80
2024/04/10 02:15:17;;;;;;;0.50;0.40;;;;;;;;;;5383862;26;20692;-80
2024/04/10 02:17:45;;;;;;;1.57;0.57;;;;;;;;;;5397246;26;20235;-80
2024/04/10 02:20:15;;;;;;;1.37;0.50;;;;;;;;;;5428451;26;20270;-80
2024/04/10 02:22:44;;;;;;;0.40;0.40;;;;;;;;;;5459307;26;20688;-80
2024/04/10 02:25:13;;;;;;;3.00;0.70;;;;;;;;;;5459942;26;20248;-79
2024/04/10 02:27:42;;;;;;;1.80;0.47;;;;;;;;;;5459501;26;20226;-80
2024/04/10 02:30:10;;;;;;;1.00;0.70;;;;;;;;;;5399219;26;20279;-80
2024/04/10 02:32:37;;;;;;;0.63;0.60;;;;;;;;;;5428163;26;20325;-79
2024/04/10 02:35:06;;;;;;;1.77;0.60;;;;;;;;;;5456389;26;20268;-79
2024/04/10 02:37:34;;;;;;;0.60;0.60;;;;;;;;;;5456142;26;20303;-79
2024/04/10 02:40:03;;;;;;;1.20;0.50;;;;;;;;;;5456720;26;20257;-79
2024/04/10 02:42:31;;;;;;;1.20;0.63;;;;;;;;;;5425661;26;20222;-79
2024/04/10 02:44:59;;;;;;;0.63;0.53;;;;;;;;;;5456898;26;20281;-79
2024/04/10 02:47:27;;;;;;;1.37;0.60;;;;;;;;;;5456760;26;20222;-79
2024/04/10 02:49:55;;;;;;;0.93;0.70;;;;;;;;;;5456371;26;20276;-78
2024/04/10 02:52:22;;;;;;;2.60;0.63;;;;;;;;;;5455527;26;20219;-80
2024/04/10 02:54:50;;;;;;;0.60;0.60;;;;;;;;;;5442125;26;20280;-77
2024/04/10 02:57:18;;;;;;;1.47;0.70;;;;;;;;;;5453949;26;20246;-78
2024/04/10 02:59:48;;;;;;;1.20;0.73;;;;;;;;;;5453995;26;20338;-78
2024/04/10 03:02:16;;;;;;;1.73;0.70;;;;;;;;;;5460932;26;20226;-78
2024/04/10 03:04:44;;;;;;;0.70;0.70;;;;;;;;;;5460697;26;20238;-78
2024/04/10 03:07:15;;;;;;;0.80;0.80;;;;;;;;;;5453389;26;20246;-78
2024/04/10 03:09:43;;;;;;;1.00;0.80;;;;;;;;;;5454044;26;20230;-78
2024/04/10 03:12:12;;;;;;;0.80;0.80;;;;;;;;;;5453834;26;20234;-79
2024/04/10 03:14:42;;;;;;;2.00;1.07;;;;;;;;;;5425080;26;20260;-79
2024/04/10 03:17:11;;;;;;;1.90;1.20;;;;;;;;;;5473765;26;20342;-80
2024/04/10 03:19:40;;;;;;;1.63;1.30;;;;;;;;;;5481326;26;20246;-79
2024/04/10 03:22:08;;;;;;;2.20;1.10;;;;;;;;;;5455152;26;20322;-79
2024/04/10 03:24:36;;;;;;;1.37;1.27;;;;;;;;;;5455178;26;20325;-79
2024/04/10 03:27:04;;;;;;;1.47;1.10;;;;;;;;;;5469486;26;20315;-78
2024/04/10 03:29:31;;;;;;;1.90;0.90;;;;;;;;;;5484327;26;20290;-79
2024/04/10 03:32:00;;;;;;;2.10;1.00;;;;;;;;;;5458419;26;20268;-79
2024/04/10 03:34:28;;;;;;;2.20;1.00;;;;;;;;;;5428308;26;20285;-81
2024/04/10 03:36:55;;;;;;;3.00;1.03;;;;;;;;;;5459157;26;20222;-79
2024/04/10 03:39:24;;;;;;;0.70;0.70;;;;;;;;;;5477474;26;20271;-80
2024/04/10 03:41:53;;;;;;;3.40;1.10;;;;;;;;;;5495392;26;20221;-79
2024/04/10 03:44:21;;;;;;;1.07;0.80;;;;;;;;;;5495677;26;20229;-79
2024/04/10 03:46:49;;;;;;;0.80;0.80;;;;;;;;;;5495517;26;20704;-80
2024/04/10 03:49:17;;;;;;;1.30;0.70;;;;;;;;;;5495202;26;20229;-79
2024/04/10 03:51:47;;;;;;;0.80;0.80;;;;;;;;;;5495429;26;20275;-80
2024/04/10 03:54:16;;;;;;;0.97;0.70;;;;;;;;;;5495871;26;20217;-79
2024/04/10 03:56:45;;;;;;;1.60;0.70;;;;;;;;;;5496230;26;20229;-80
2024/04/10 03:59:12;;;;;;;1.17;0.80;;;;;;;;;;5496102;26;20252;-79
2024/04/10 04:01:42;;;;;;;0.73;0.73;;;;;;;;;;5495859;26;20255;-79
2024/04/10 04:04:10;;;;;;;0.53;0.53;;;;;;;;;;5464590;26;20256;-80
2024/04/10 04:06:37;;;;;;;0.53;0.53;;;;;;;;;;5495564;26;20225;-80
2024/04/10 04:09:04;;;;;;;1.07;0.70;;;;;;;;;;5496226;26;20217;-80
2024/04/10 04:11:32;;;;;;;0.70;0.57;;;;;;;;;;5496223;26;20220;-79
2024/04/10 04:14:00;;;;;;;2.10;0.60;;;;;;;;;;5495922;26;20752;-80
2024/04/10 04:16:27;;;;;;;1.90;0.60;;;;;;;;;;5495665;26;20268;-80
2024/04/10 04:18:55;;;;;;;0.60;0.60;;;;;;;;;;5464092;26;20237;-79
2024/04/10 04:21:23;;;;;;;0.80;0.67;;;;;;;;;;5496034;26;20218;-79
2024/04/10 04:23:52;;;;;;;0.73;0.60;;;;;;;;;;5464604;26;20224;-80
2024/04/10 04:26:21;;;;;;;1.53;0.70;;;;;;;;;;5496283;26;20217;-80
2024/04/10 04:28:48;;;;;;;0.63;0.63;;;;;;;;;;5496640;26;20325;-79
2024/04/10 04:31:15;;;;;;;0.70;0.70;;;;;;;;;;5496273;26;20598;-80
2024/04/10 04:33:43;;;;;;;1.17;0.70;;;;;;;;;;5496011;26;20247;-80
2024/04/10 04:36:11;;;;;;;0.70;0.70;;;;;;;;;;5496052;26;20757;-80
2024/04/10 04:38:38;;;;;;;0.60;0.60;;;;;;;;;;5496235;26;20329;-79
2024/04/10 04:41:06;;;;;;;2.10;0.70;;;;;;;;;;5494778;26;20217;-79
2024/04/10 04:43:34;;;;;;;2.00;1.10;;;;;;;;;;5496140;26;20263;-79
2024/04/10 04:46:02;;;;;;;0.80;0.80;;;;;;;;;;5496494;26;20221;-80
2024/04/10 04:48:30;;;;;;;0.83;0.70;;;;;;;;;;5495949;26;20321;-80
2024/04/10 04:50:59;;;;;;;1.67;0.80;;;;;;;;;;5495854;26;20217;-79
2024/04/10 04:53:27;;;;;;;0.70;0.70;;;;;;;;;;5495687;26;20233;-80
2024/04/10 04:55:56;;;;;;;0.77;0.70;;;;;;;;;;5495262;26;20285;-80
2024/04/10 04:58:31;;;;;;;1.40;0.70;;;;;;;;;;5499571;26;20276;-83
2024/04/10 05:01:27;;;;;;;0.80;0.53;;;;;;;;;;5482697;26;20257;-84
2024/04/10 05:07:30;;;;;;;0.87;0.63;;;;;;;;;;5347740;21;20293;-87
2024/04/10 05:09:58;;;;;;;0.70;0.70;;;;;;;;;;5263633;27;20285;-88
2024/04/10 05:12:27;;;;;;;1.27;0.70;;;;;;;;;;5257067;27;20278;-88
2024/04/10 05:14:55;;;;;;;0.50;0.50;;;;;;;;;;5250504;27;20286;-87
2024/04/10 05:17:22;;;;;;;0.77;0.63;;;;;;;;;;5280449;27;20337;-87
2024/04/10 05:19:50;;;;;;;0.80;0.50;;;;;;;;;;5259760;27;20277;-86
2024/04/10 05:22:18;;;;;;;0.50;0.50;;;;;;;;;;5241380;27;20238;-88
2024/04/10 05:24:46;;;;;;;0.30;0.30;;;;;;;;;;5270381;27;20254;-87
2024/04/10 05:27:25;;;;;;;0.57;0.50;;;;;;;;;;5257848;27;20242;-88
2024/04/10 05:29:56;;;;;;;0.47;0.47;;;;;;;;;;5273064;27;20243;-86
2024/04/10 05:32:23;;;;;;;2.90;0.70;;;;;;;;;;5253599;27;20280;-88
2024/04/10 05:34:52;;;;;;;0.60;0.60;;;;;;;;;;5257018;27;20727;-87
2024/04/10 05:37:20;;;;;;;0.60;0.60;;;;;;;;;;5257611;27;20236;-86
2024/04/10 05:40:00;;;;;;;0.70;0.70;;;;;;;;;;5270561;27;20242;-87
2024/04/10 05:42:28;;;;;;;0.70;0.70;;;;;;;;;;5257071;27;20288;-87
2024/04/10 05:44:56;;;;;;;1.13;0.80;;;;;;;;;;5256930;27;20290;-87
2024/04/10 05:47:24;;;;;;;4.33;1.10;;;;;;;;;;5284913;27;20242;-87
2024/04/10 05:49:57;;;;;;;0.70;0.70;;;;;;;;;;5273552;27;20280;-86
2024/04/10 05:52:25;;;;;;;0.80;0.80;;;;;;;;;;5258961;26;20297;-87
2024/04/10 05:54:53;;;;;;;0.90;0.90;;;;;;;;;;5275437;27;20777;-88
2024/04/10 05:57:24;;;;;;;0.80;0.80;;;;;;;;;;5262401;27;20242;-86
2024/04/10 05:59:54;;;;;;;0.70;0.70;;;;;;;;;;5288066;27;20251;-87
2024/04/10 06:02:22;;;;;;;0.80;0.80;;;;;;;;;;5255886;26;20305;-87
2024/04/10 06:04:52;;;;;;;0.80;0.80;;;;;;;;;;5274400;27;20285;-88
2024/04/10 06:07:19;;;;;;;0.80;0.80;;;;;;;;;;5227018;27;20279;-87
2024/04/10 06:09:54;;;;;;;0.90;0.90;;;;;;;;;;5252356;27;20244;-88
2024/04/10 06:12:22;;;;;;;0.73;0.70;;;;;;;;;;5223367;27;20232;-86
2024/04/10 06:14:52;;;;;;;1.37;0.83;;;;;;;;;;5249293;27;20253;-86
2024/04/10 06:17:22;;;;;;;1.23;0.90;;;;;;;;;;5222259;27;20245;-87
2024/04/10 06:19:49;;;;;;;0.70;0.70;;;;;;;;;;5245501;27;20366;-87
2024/04/10 06:22:17;;;;;;;1.37;0.73;;;;;;;;;;5238878;27;20240;-87
2024/04/10 06:24:51;;;;;;;0.70;0.70;;;;;;;;;;5247280;27;20350;-87
2024/04/10 06:27:19;;;;;;;0.60;0.60;;;;;;;;;;5246081;27;20274;-87
2024/04/10 06:29:48;;;;;;;1.13;0.60;;;;;;;;;;5207132;27;20243;-87
2024/04/10 06:32:18;;;;;;;1.03;0.60;;;;;;;;;;5245096;27;20248;-87
2024/04/10 06:34:46;;;;;;;2.90;0.70;;;;;;;;;;5250446;27;20242;-87
2024/04/10 06:37:15;;;;;;;1.13;0.70;;;;;;;;;;5247726;27;20346;-88
2024/04/10 06:39:42;;;;;;;0.60;0.60;;;;;;;;;;5227928;27;20332;-87
2024/04/10 06:42:10;;;;;;;2.23;0.60;;;;;;;;;;5241270;27;21009;-86
2024/04/10 06:44:40;;;;;;;0.97;0.60;;;;;;;;;;5243048;27;20244;-87
2024/04/10 06:47:08;;;;;;;0.67;0.60;;;;;;;;;;5216032;27;20726;-86
2024/04/10 06:49:36;;;;;;;1.43;0.50;;;;;;;;;;5245374;27;20249;-87
2024/04/10 06:52:04;;;;;;;1.17;0.50;;;;;;;;;;5217437;27;20283;-85
2024/04/10 06:54:31;;;;;;;0.60;0.53;;;;;;;;;;5217205;27;20249;-87
2024/04/10 06:56:58;;;;;;;0.53;0.50;;;;;;;;;;5231064;27;20246;-86
2024/04/10 06:59:25;;;;;;;0.60;0.50;;;;;;;;;;5253089;27;20816;-85
2024/04/10 07:01:52;;;;;;;0.80;0.70;;;;;;;;;;5202520;27;20293;-88
2024/04/10 07:04:20;;;;;;;1.30;0.60;;;;;;;;;;5231618;27;20346;-86
2024/04/10 07:06:47;;;;;;;1.23;0.70;;;;;;;;;;5232717;27;20298;-87
2024/04/10 07:09:16;;;;;;;0.97;0.50;;;;;;;;;;5226192;27;20261;-90
2024/04/10 07:11:44;;;;;;;0.87;0.60;;;;;;;;;;5217359;27;20271;-86
2024/04/10 07:14:13;;;;;;;0.60;0.60;;;;;;;;;;5224638;27;20248;-86
2024/04/10 07:16:40;;;;;;;0.77;0.60;;;;;;;;;;5241789;27;20248;-87
2024/04/10 07:19:09;;;;;;;0.60;0.60;;;;;;;;;;5236591;27;20338;-87
2024/04/10 07:21:36;;;;;;;0.93;0.67;;;;;;;;;;5240308;27;20237;-86
2024/04/10 07:24:04;;;;;;;1.07;0.80;;;;;;;;;;5210552;27;20359;-85
2024/04/10 07:26:32;;;;;;;0.97;0.83;;;;;;;;;;5210081;27;20741;-86
2024/04/10 07:28:59;;;;;;;1.70;0.70;;;;;;;;;;5217505;27;20244;-87
2024/04/10 07:31:34;;;;;;;4.13;1.30;;;;;;;;;;5210976;27;20283;-86
2024/04/10 07:34:03;;;;;;;1.20;0.80;;;;;;;;;;5233450;27;20241;-87
2024/04/10 07:36:32;;;;;;;1.63;0.90;;;;;;;;;;5213151;27;20245;-86
2024/04/10 07:39:08;;;;;;;2.50;0.70;;;;;;;;;;5256965;27;20299;-86
2024/04/10 07:41:36;;;;;;;0.97;0.90;;;;;;;;;;5250589;27;20284;-85
2024/04/10 07:44:05;;;;;;;1.17;0.70;;;;;;;;;;5210729;27;20253;-86
2024/04/10 07:46:36;;;;;;;1.37;0.80;;;;;;;;;;5220627;27;20338;-86
2024/04/10 07:49:07;;;;;;;1.53;0.70;;;;;;;;;;5251677;27;20248;-84
2024/04/10 07:51:35;;;;;;;2.10;0.80;;;;;;;;;;5242909;27;20310;-86
2024/04/10 07:54:02;;;;;;;0.67;0.67;;;;;;;;;;5210903;27;20294;-86
2024/04/10 07:56:29;;;;;;;0.80;0.70;;;;;;;;;;5234246;27;20250;-86
2024/04/10 07:58:58;;;;;;;1.20;0.70;;;;;;;;;;5223385;27;20269;-86
2024/04/10 08:01:26;;;;;;;1.70;0.90;;;;;;;;;;5245553;27;20305;-90
2024/04/10 08:03:53;;;;;;;1.17;0.70;;;;;;;;;;5207747;27;20254;-86
2024/04/10 08:06:23;;;;;;;1.70;0.70;;;;;;;;;;5214762;27;20245;-86
2024/04/10 08:08:50;;;;;;;1.13;0.70;;;;;;;;;;5215038;27;20256;-86
2024/04/10 08:11:17;;;;;;;0.73;0.73;;;;;;;;;;5218111;27;20287;-86
2024/04/10 08:13:45;;;;;;;1.53;0.90;;;;;;;;;;5246255;27;20264;-85
2024/04/10 08:16:15;;;;;;;1.87;1.00;;;;;;;;;;5209254;27;20249;-86
2024/04/10 08:18:43;;;;;;;1.33;0.60;;;;;;;;;;5220968;27;20343;-86
2024/04/10 08:21:13;;;;;;;0.63;0.60;;;;;;;;;;5247238;27;20315;-86
2024/04/10 08:23:42;;;;;;;1.00;0.70;;;;;;;;;;5234008;27;20263;-86
2024/04/10 08:26:14;;;;;;;1.60;0.90;;;;;;;;;;5247866;27;20268;-87
2024/04/10 08:28:48;;;;;;;1.30;0.80;;;;;;;;;;5191926;27;20896;-85
2024/04/10 08:31:20;;;;;;;2.93;0.80;;;;;;;;;;5223682;27;20271;-86
2024/04/10 08:33:49;;;;;;;0.97;0.70;;;;;;;;;;5235599;27;20601;-86
2024/04/10 08:36:17;;;;;;;0.73;0.70;;;;;;;;;;5209974;27;20726;-85
2024/04/10 08:38:45;;;;;;;0.90;0.80;;;;;;;;;;5212005;27;20832;-87
2024/04/10 08:41:13;;;;;;;1.73;0.90;;;;;;;;;;5210489;27;20248;-86
2024/04/10 08:43:43;;;;;;;0.83;0.80;;;;;;;;;;5217016;27;20253;-85
2024/04/10 08:46:11;;;;;;;0.80;0.70;;;;;;;;;;5221856;27;20242;-86
2024/04/10 08:48:40;;;;;;;1.17;1.03;;;;;;;;;;5243273;27;20293;-87
2024/04/10 08:51:09;;;;;;;1.13;0.90;;;;;;;;;;5243081;27;20265;-86
2024/04/10 08:53:38;;;;;;;1.13;1.03;;;;;;;;;;5227789;27;20323;-87
2024/04/10 08:56:06;;;;;;;1.03;0.93;;;;;;;;;;5220853;27;20321;-86
2024/04/10 08:58:36;;;;;;;1.40;1.00;;;;;;;;;;5215250;27;20333;-86
2024/04/10 09:01:04;;;;;;;2.80;0.97;;;;;;;;;;5216073;27;20312;-87
2024/04/10 09:03:33;;;;;;;3.30;1.10;;;;;;;;;;5267253;27;20755;-86
2024/04/10 09:06:03;;;;;;;1.63;1.00;;;;;;;;;;5240298;27;20247;-87
2024/04/10 09:08:30;;;;;;;2.13;1.00;;;;;;;;;;5207495;27;20254;-87
2024/04/10 09:10:58;;;;;;;2.60;0.87;;;;;;;;;;5197117;27;20246;-86
2024/04/10 09:13:25;;;;;;;3.00;1.10;;;;;;;;;;5212636;27;20299;-87
2024/04/10 09:15:57;;;;;;;1.83;0.90;;;;;;;;;;5239979;27;20773;-85
2024/04/10 09:18:26;;;;;;;3.33;1.00;;;;;;;;;;5243494;27;20263;-87
2024/04/10 09:21:08;;;;;;;1.53;0.83;;;;;;;;;;5237461;27;20252;-87
2024/04/10 09:23:36;;;;;;;1.57;0.93;;;;;;;;;;5213164;27;20248;-86
2024/04/10 09:26:05;;;;;;;1.70;0.93;;;;;;;;;;5206185;27;20258;-86
2024/04/10 09:28:34;;;;;;;2.57;1.37;;;;;;;;;;5213181;27;20734;-87
2024/04/10 09:31:02;;;;;;;2.37;1.10;;;;;;;;;;5236974;27;20304;-85
2024/04/10 09:33:32;;;;;;;1.93;1.10;;;;;;;;;;5230574;27;20742;-86
2024/04/10 09:36:02;;;;;;;1.70;1.00;;;;;;;;;;5235570;27;20249;-86
2024/04/10 09:38:35;;;;;;;2.90;1.40;;;;;;;;;;5207614;27;20327;-87
2024/04/10 09:41:07;;;;;;;1.90;1.20;;;;;;;;;;5212969;27;20250;-87
2024/04/10 09:43:41;;;;;;;1.73;1.20;;;;;;;;;;5203545;27;20242;-85
2024/04/10 09:46:08;;;;;;;1.67;1.10;;;;;;;;;;5195454;27;20292;-85
2024/04/10 09:48:37;;;;;;;1.23;1.10;;;;;;;;;;5214597;27;20344;-86
2024/04/10 09:51:05;;;;;;;1.73;1.10;;;;;;;;;;5213959;27;20309;-84
2024/04/10 09:53:33;;;;;;;1.10;0.90;;;;;;;;;;5198033;27;20343;-86
2024/04/10 09:56:01;;;;;;;1.10;1.00;;;;;;;;;;5206359;27;20292;-86
2024/04/10 09:58:31;;;;;;;1.50;1.10;;;;;;;;;;5199949;27;20264;-86
2024/04/10 10:01:00;;;;;;;1.57;1.00;;;;;;;;;;5228521;27;20244;-86
2024/04/10 10:03:27;;;;;;;0.80;0.80;;;;;;;;;;5192062;27;20270;-87
2024/04/10 10:06:05;;;;;;;1.20;1.00;;;;;;;;;;5237910;27;20278;-86
2024/04/10 10:08:33;;;;;;;1.20;1.10;;;;;;;;;;5206554;27;20313;-86
2024/04/10 10:11:00;;;;;;;2.50;1.10;;;;;;;;;;5211089;27;20256;-85
2024/04/10 10:13:41;;;;;;;1.17;0.87;;;;;;;;;;5262011;27;20282;-88
2024/04/10 10:16:09;;;;;;;1.13;0.90;;;;;;;;;;5243971;27;20254;-86
2024/04/10 10:18:40;;;;;;;1.83;0.90;;;;;;;;;;5233377;27;20338;-85
2024/04/10 10:21:12;;;;;;;1.73;1.00;;;;;;;;;;5227494;27;20303;-85
2024/04/10 10:23:41;;;;;;;2.00;0.80;;;;;;;;;;5231973;27;20261;-87
2024/04/10 10:26:09;;;;;;;1.10;0.80;;;;;;;;;;5234632;27;20249;-84
2024/04/10 10:28:36;;;;;;;1.90;0.80;;;;;;;;;;5221187;27;20267;-85
2024/04/10 10:31:08;;;;;;;3.17;0.80;;;;;;;;;;5210655;27;20247;-84
2024/04/10 10:33:36;;;;;;;0.80;0.80;;;;;;;;;;5237427;27;20287;-85
2024/04/10 10:36:06;;;;;;;1.10;0.80;;;;;;;;;;5244877;27;20260;-84
2024/04/10 10:38:34;;;;;;;0.93;0.77;;;;;;;;;;5213125;27;20277;-86
2024/04/10 10:41:04;;;;;;;2.90;0.77;;;;;;;;;;5214257;27;20297;-85
2024/04/10 10:43:37;;;;;;;1.03;0.73;;;;;;;;;;5250193;27;20285;-86
2024/04/10 10:46:08;;;;;;;0.80;0.80;;;;;;;;;;5228885;27;20325;-85
2024/04/10 10:48:36;;;;;;;1.13;0.90;;;;;;;;;;5216422;27;20252;-85
2024/04/10 10:51:04;;;;;;;0.77;0.60;;;;;;;;;;5200374;27;20244;-84
2024/04/10 10:53:38;;;;;;;1.03;0.90;;;;;;;;;;5224410;27;20250;-84
2024/04/10 10:56:05;;;;;;;1.00;0.90;;;;;;;;;;5218720;27;20289;-85
2024/04/10 10:58:34;;;;;;;1.60;0.80;;;;;;;;;;5267369;27;20247;-84
2024/04/10 11:01:06;;;;;;;1.07;0.83;;;;;;;;;;5215563;27;20590;-84
2024/04/10 11:03:34;;;;;;;1.27;0.87;;;;;;;;;;5252723;27;20240;-85
2024/04/10 11:06:07;;;;;;;1.43;1.00;;;;;;;;;;5233875;27;20252;-84
2024/04/10 11:08:36;;;;;;;1.07;0.97;;;;;;;;;;5273035;27;20242;-85
2024/04/10 11:11:06;;;;;;;1.97;0.90;;;;;;;;;;5269995;27;20252;-86
2024/04/10 11:13:49;;;;;;;2.00;0.87;;;;;;;;;;5300701;27;20237;-84
2024/04/10 11:16:23;;;;;;;1.57;1.10;;;;;;;;;;5291677;27;20257;-85
2024/04/10 11:18:51;;;;;;;1.33;1.03;;;;;;;;;;5298381;27;20356;-86
2024/04/10 11:21:19;;;;;;;2.40;1.00;;;;;;;;;;5277329;27;20288;-85
2024/04/10 11:23:47;;;;;;;1.90;1.00;;;;;;;;;;5297575;26;20241;-85
2024/04/10 11:26:15;;;;;;;1.13;1.00;;;;;;;;;;5248886;27;20340;-86
2024/04/10 11:28:46;;;;;;;2.17;1.00;;;;;;;;;;5275135;27;20245;-86
2024/04/10 11:31:15;;;;;;;1.57;1.30;;;;;;;;;;5273694;27;20245;-85
2024/04/10 11:33:43;;;;;;;1.37;1.00;;;;;;;;;;5280597;27;20336;-85
2024/04/10 11:36:11;;;;;;;2.07;1.00;;;;;;;;;;5298903;27;20276;-86
2024/04/10 11:38:38;;;;;;;1.23;0.90;;;;;;;;;;5293768;27;20328;-86
2024/04/10 11:41:10;;;;;;;1.20;1.00;;;;;;;;;;5253136;27;20305;-86
2024/04/10 11:43:39;;;;;;;1.73;1.07;;;;;;;;;;5287773;27;20262;-85
2024/04/10 11:46:09;;;;;;;2.13;0.90;;;;;;;;;;5233298;27;20261;-86
2024/04/10 11:48:39;;;;;;;1.20;1.00;;;;;;;;;;5263012;27;20306;-82
2024/04/10 11:51:07;;;;;;;1.00;0.90;;;;;;;;;;5227871;27;20274;-85
2024/04/10 11:53:35;;;;;;;1.13;1.03;;;;;;;;;;5219736;27;20251;-84
2024/04/10 11:56:06;;;;;;;1.00;0.80;;;;;;;;;;5281595;27;20247;-85
2024/04/10 11:58:34;;;;;;;2.07;0.90;;;;;;;;;;5235558;27;20337;-85
2024/04/10 12:01:04;;;;;;;3.83;1.03;;;;;;;;;;5246565;27;20254;-85
2024/04/10 12:03:32;;;;;;;1.10;1.00;;;;;;;;;;5242501;27;20293;-85
2024/04/10 12:06:04;;;;;;;1.10;1.00;;;;;;;;;;5236177;27;20255;-85
2024/04/10 12:08:36;;;;;;;1.00;0.87;;;;;;;;;;5276079;27;20761;-86
2024/04/10 12:11:05;;;;;;;1.27;1.10;;;;;;;;;;5267677;27;20246;-88
2024/04/10 12:13:37;;;;;;;1.77;0.80;;;;;;;;;;5266558;27;20236;-85
2024/04/10 12:16:04;;;;;;;1.47;0.90;;;;;;;;;;5276078;27;20281;-85
2024/04/10 12:18:32;;;;;;;0.90;0.80;;;;;;;;;;5271757;27;20304;-86
2024/04/10 12:20:59;;;;;;;1.57;0.90;;;;;;;;;;5235429;27;20276;-86
2024/04/10 12:23:26;;;;;;;3.23;1.17;;;;;;;;;;5255034;27;20269;-87
2024/04/10 12:25:54;;;;;;;2.47;0.80;;;;;;;;;;5282039;27;20248;-85
2024/04/10 12:28:21;;;;;;;3.07;1.17;;;;;;;;;;5249680;27;20302;-85
2024/04/10 12:30:49;;;;;;;1.83;1.10;;;;;;;;;;5248623;27;20255;-85
2024/04/10 12:33:18;;;;;;;1.33;1.10;;;;;;;;;;5275893;27;20278;-85
2024/04/10 12:38:33;;;;;;;2.20;1.00;;;;;;;;;;5224743;27;20250;-85
2024/04/10 12:41:05;;;;;;;4.07;0.93;;;;;;;;;;5262864;27;20277;-86
2024/04/10 12:43:32;;;;;;;2.40;1.00;;;;;;;;;;5251523;27;20339;-85
2024/04/10 12:45:59;;;;;;;1.20;1.10;;;;;;;;;;5248052;27;20294;-85
2024/04/10 12:48:28;;;;;;;1.27;0.90;;;;;;;;;;5271219;27;20354;-86
2024/04/10 12:50:56;;;;;;;3.47;1.30;;;;;;;;;;5233424;27;20259;-85
2024/04/10 12:53:25;;;;;;;1.70;1.00;;;;;;;;;;5273238;27;20294;-84
2024/04/10 12:55:56;;;;;;;1.03;1.03;;;;;;;;;;5258261;27;20236;-86
2024/04/10 12:58:23;;;;;;;1.87;0.90;;;;;;;;;;5251172;27;20250;-85
2024/04/10 13:00:51;;;;;;;1.97;1.10;;;;;;;;;;5243594;27;20357;-85
2024/04/10 13:03:23;;;;;;;2.90;1.20;;;;;;;;;;5269737;27;20267;-85
2024/04/10 13:05:59;;;;;;;2.40;1.10;;;;;;;;;;5240360;27;20245;-87
2024/04/10 13:08:29;;;;;;;1.40;1.10;;;;;;;;;;5240500;27;20244;-86
2024/04/10 13:11:06;;;;;;;2.37;1.30;;;;;;;;;;5281362;27;20343;-85
2024/04/10 13:13:35;;;;;;;3.40;1.50;;;;;;;;;;5281440;27;20241;-85
2024/04/10 13:16:04;;;;;;;1.80;1.00;;;;;;;;;;5265685;27;20253;-86
2024/04/10 13:18:32;;;;;;;1.53;1.30;;;;;;;;;;5258402;27;20329;-86
2024/04/10 13:21:00;;;;;;;1.27;1.07;;;;;;;;;;5252721;27;20277;-85
2024/04/10 14:01:36;;;;;;;3.27;1.20;;;;;;;;;;6503796;20;5770994;-82
2024/04/10 14:04:30;;;;;;;1.67;1.40;;;;;;;;;;6749380;21;20225;-82
2024/04/10 14:07:02;;;;;;;2.33;1.40;;;;;;;;;;6675774;21;20252;-81
2024/04/10 14:09:32;;;;;;;1.50;1.40;;;;;;;;;;6767493;21;20223;-83
2024/04/10 14:12:19;;;;;;;2.93;1.60;;;;;;;;;;6769656;21;20230;-82
2024/04/10 14:15:09;;;;;;;2.00;1.67;;;;;;;;;;6635780;21;20280;-83
2024/04/10 14:17:46;;;;;;;2.10;1.47;;;;;;;;;;6727133;21;20236;-83
2024/04/10 14:20:58;;;;;;;1.57;1.40;;;;;;;;;;6737766;21;20224;-83
2024/04/10 14:23:46;;;;;;;1.60;1.50;;;;;;;;;;6768145;21;20235;-82
2024/04/10 14:26:23;;;;;;;1.63;1.40;;;;;;;;;;6768537;21;20236;-82
2024/04/10 14:29:00;;;;;;;2.17;1.60;;;;;;;;;;6717851;21;20225;-83
2024/04/10 14:31:37;;;;;;;2.13;1.90;;;;;;;;;;6720744;21;20285;-81
2024/04/10 14:34:31;;;;;;;2.30;1.67;;;;;;;;;;6765508;21;20276;-81
2024/04/10 14:37:06;;;;;;;1.70;1.60;;;;;;;;;;6758667;21;20303;-82
2024/04/10 14:39:43;;;;;;;1.80;1.53;;;;;;;;;;6711180;21;20237;-82
2024/04/10 14:42:12;;;;;;;1.63;1.50;;;;;;;;;;6711504;21;20228;-82
2024/04/10 14:44:46;;;;;;;2.23;1.60;;;;;;;;;;6711492;21;20282;-82
2024/04/10 14:47:21;;;;;;;2.00;1.50;;;;;;;;;;6760906;21;20227;-82
2024/04/10 14:50:10;;;;;;;1.87;1.70;;;;;;;;;;6688879;21;20274;-82
2024/04/10 14:52:57;;;;;;;2.37;1.50;;;;;;;;;;6758114;21;20223;-82
2024/04/10 14:55:37;;;;;;;1.67;1.43;;;;;;;;;;6718363;21;20305;-82
2024/04/10 14:58:21;;;;;;;1.63;1.23;;;;;;;;;;6720350;21;20178;-83
2024/04/10 15:01:28;;;;;;;3.17;1.30;;;;;;;;;;6761128;21;20232;-83
2024/04/10 15:04:09;;;;;;;2.03;1.30;;;;;;;;;;6760324;21;20177;-82
2024/04/10 15:10:28;;;;;;;1.93;1.30;;;;;;;;;;6722024;21;20639;-84
2024/04/10 15:13:37;;;;;;;1.40;1.30;;;;;;;;;;6764915;21;20165;-83
2024/04/10 15:20:48;;;;;;;2.10;1.33;;;;;;;;;;6449615;22;20253;-83
2024/04/10 15:23:49;;;;;;;1.73;1.30;;;;;;;;;;6411106;22;20265;-83
2024/04/10 15:26:54;;;;;;;1.73;1.23;;;;;;;;;;6403670;22;20227;-83
2024/04/10 15:38:08;;;;;;;1.80;1.33;;;;;;;;;;6449699;22;20597;-83
2024/04/10 15:45:42;;;;;;;2.10;1.33;;;;;;;;;;6769125;21;20208;-83
2024/04/10 15:48:42;;;;;;;3.07;1.80;;;;;;;;;;6693694;21;20227;-82
2024/04/10 15:55:44;;;;;;;2.57;1.50;;;;;;;;;;6768751;21;20198;-83
2024/04/10 15:58:46;;;;;;;1.90;1.40;;;;;;;;;;6765944;21;20242;-83
2024/04/10 16:05:39;;;;;;;2.73;1.60;;;;;;;;;;6552073;22;20227;-83
2024/04/10 16:08:31;;;;;;;1.93;1.47;;;;;;;;;;6764114;21;20269;-83
2024/04/10 16:19:08;;;;;;;1.40;1.30;;;;;;;;;;6748544;21;20208;-83
2024/04/10 16:22:17;;;;;;;1.87;1.20;;;;;;;;;;6728069;21;20212;-83
2024/04/10 16:24:55;;;;;;;1.97;1.60;;;;;;;;;;6704154;21;20214;-83
2024/04/10 16:27:55;;;;;;;2.43;1.43;;;;;;;;;;6748187;21;20249;-84